Time;durP1;ratioP1;P1;durP2;ratioP2;P2;SDS_P1;SDS_P2;PMS_P1;PMS_P2;Temp;Humidity;BMP_temperature;BMP_pressure;BME280_temperature;BME280_humidity;BME280_pressure;Samples;Min_cycle;Max_cycle;Signal;HPM_P1;HPM_P2
2022/11/25 00:01:11;;;;;;;5.53;2.17;;;;;;;;;;5013023;28;20108;-78
2022/11/25 00:03:37;;;;;;;4.95;2.05;;;;;;;;;;5012547;28;20056;-78
2022/11/25 00:06:18;;;;;;;5.53;2.13;;;;;;;;;;4995975;28;20032;-77
2022/11/25 00:08:44;;;;;;;6.50;1.73;;;;;;;;;;5013992;28;20185;-78
2022/11/25 00:11:11;;;;;;;5.70;2.28;;;;;;;;;;5014100;28;20034;-77
2022/11/25 00:13:37;;;;;;;5.22;2.15;;;;;;;;;;5012740;28;20061;-78
2022/11/25 00:16:05;;;;;;;6.55;2.00;;;;;;;;;;5012686;28;20025;-78
2022/11/25 00:18:31;;;;;;;6.00;2.20;;;;;;;;;;5028892;28;20033;-77
2022/11/25 00:20:57;;;;;;;8.27;3.10;;;;;;;;;;5013684;28;20530;-77
2022/11/25 00:23:22;;;;;;;9.32;2.30;;;;;;;;;;5012234;28;20121;-78
2022/11/25 00:25:48;;;;;;;6.90;2.10;;;;;;;;;;4996334;28;20172;-78
2022/11/25 00:28:13;;;;;;;7.75;2.17;;;;;;;;;;4995680;28;20125;-78
2022/11/25 00:30:38;;;;;;;7.63;2.17;;;;;;;;;;5013534;28;20034;-78
2022/11/25 00:33:04;;;;;;;6.13;2.22;;;;;;;;;;5012036;28;20189;-78
2022/11/25 00:35:29;;;;;;;6.18;2.88;;;;;;;;;;5012334;28;20036;-78
2022/11/25 00:37:54;;;;;;;6.60;2.42;;;;;;;;;;5013519;28;20033;-78
2022/11/25 00:40:20;;;;;;;5.13;1.95;;;;;;;;;;4996031;28;20472;-78
2022/11/25 00:45:29;;;;;;;6.28;1.95;;;;;;;;;;5012549;28;20044;-78
2022/11/25 00:47:54;;;;;;;7.57;2.25;;;;;;;;;;5012098;28;20120;-78
2022/11/25 00:50:20;;;;;;;6.82;2.22;;;;;;;;;;4995960;28;20079;-78
2022/11/25 00:52:45;;;;;;;10.07;2.00;;;;;;;;;;5012225;28;20026;-78
2022/11/25 00:55:10;;;;;;;7.63;1.92;;;;;;;;;;5011753;28;20397;-78
2022/11/25 00:57:36;;;;;;;8.20;2.05;;;;;;;;;;5012658;28;20026;-78
2022/11/25 01:00:01;;;;;;;5.35;2.10;;;;;;;;;;5011756;28;20034;-78
2022/11/25 01:02:27;;;;;;;9.07;1.95;;;;;;;;;;5011801;28;20053;-78
2022/11/25 01:04:52;;;;;;;4.57;1.75;;;;;;;;;;4995399;28;20125;-77
2022/11/25 01:07:18;;;;;;;6.20;2.10;;;;;;;;;;5011795;28;20033;-78
2022/11/25 01:09:43;;;;;;;6.18;2.00;;;;;;;;;;4996349;28;20030;-78
2022/11/25 01:12:09;;;;;;;8.27;2.22;;;;;;;;;;5012012;28;20034;-78
2022/11/25 01:14:34;;;;;;;6.15;2.03;;;;;;;;;;4995262;28;20052;-78
2022/11/25 01:17:00;;;;;;;7.20;2.00;;;;;;;;;;5015720;28;20116;-78
2022/11/25 01:19:25;;;;;;;5.25;2.20;;;;;;;;;;5015618;28;20104;-78
2022/11/25 01:21:51;;;;;;;5.25;2.10;;;;;;;;;;5015845;28;20034;-78
2022/11/25 01:24:16;;;;;;;5.32;1.85;;;;;;;;;;5015789;28;20084;-77
2022/11/25 01:26:43;;;;;;;4.28;2.13;;;;;;;;;;4982786;28;20456;-77
2022/11/25 01:29:14;;;;;;;6.78;2.25;;;;;;;;;;5032201;28;20469;-78
2022/11/25 01:31:39;;;;;;;10.38;2.00;;;;;;;;;;4999043;28;20036;-78
2022/11/25 01:34:13;;;;;;;5.00;1.55;;;;;;;;;;5015631;28;20042;-78
2022/11/25 01:36:39;;;;;;;5.43;1.85;;;;;;;;;;4999256;28;20032;-78
2022/11/25 01:39:04;;;;;;;6.20;1.80;;;;;;;;;;5015324;28;20045;-77
2022/11/25 01:41:31;;;;;;;5.80;2.15;;;;;;;;;;5016344;28;20030;-78
2022/11/25 01:44:05;;;;;;;4.75;1.77;;;;;;;;;;5015879;28;20417;-77
2022/11/25 01:46:59;;;;;;;7.00;1.92;;;;;;;;;;5016512;28;20113;-77
2022/11/25 01:49:27;;;;;;;5.07;2.20;;;;;;;;;;5004528;28;20488;-78
2022/11/25 01:51:58;;;;;;;9.27;1.80;;;;;;;;;;5016430;28;20025;-78
2022/11/25 01:54:26;;;;;;;6.75;2.10;;;;;;;;;;5014834;28;20036;-78
2022/11/25 01:56:57;;;;;;;4.88;2.10;;;;;;;;;;4998880;28;20061;-78
2022/11/25 01:59:22;;;;;;;5.20;1.70;;;;;;;;;;5015063;28;20029;-78
2022/11/25 02:01:48;;;;;;;4.85;1.92;;;;;;;;;;4998434;28;20026;-77
2022/11/25 02:04:16;;;;;;;6.85;2.00;;;;;;;;;;5015146;28;20037;-78
2022/11/25 02:06:47;;;;;;;4.03;1.80;;;;;;;;;;4998126;28;20030;-78
2022/11/25 02:09:13;;;;;;;5.70;2.08;;;;;;;;;;5014883;28;20025;-78
2022/11/25 02:11:41;;;;;;;5.03;2.00;;;;;;;;;;4998171;28;20037;-79
2022/11/25 02:14:07;;;;;;;6.60;2.00;;;;;;;;;;5015508;28;20030;-80
2022/11/25 02:16:33;;;;;;;5.63;2.17;;;;;;;;;;5014929;28;20029;-81
2022/11/25 02:18:58;;;;;;;5.50;1.80;;;;;;;;;;5014655;28;20034;-79
2022/11/25 02:21:28;;;;;;;4.47;1.75;;;;;;;;;;4998349;28;20485;-79
2022/11/25 02:24:06;;;;;;;6.80;1.80;;;;;;;;;;5014860;28;20030;-79
2022/11/25 02:26:31;;;;;;;5.15;1.90;;;;;;;;;;5030862;28;20021;-79
2022/11/25 02:28:57;;;;;;;5.97;2.08;;;;;;;;;;4997989;28;20033;-79
2022/11/25 02:31:23;;;;;;;6.15;2.03;;;;;;;;;;5014744;28;20486;-78
2022/11/25 02:33:48;;;;;;;6.90;2.50;;;;;;;;;;5014281;28;20037;-78
2022/11/25 02:36:17;;;;;;;8.18;2.17;;;;;;;;;;5016250;28;20124;-78
2022/11/25 02:39:03;;;;;;;9.77;1.90;;;;;;;;;;4998176;28;20068;-79
2022/11/25 02:41:34;;;;;;;7.20;2.15;;;;;;;;;;5030129;28;20042;-78
2022/11/25 02:44:00;;;;;;;7.13;2.28;;;;;;;;;;4997677;28;20091;-78
2022/11/25 02:46:26;;;;;;;5.25;1.63;;;;;;;;;;4997558;28;20039;-78
2022/11/25 02:48:54;;;;;;;5.63;1.90;;;;;;;;;;5015564;28;20034;-78
2022/11/25 02:51:21;;;;;;;5.90;1.90;;;;;;;;;;5030527;28;20041;-78
2022/11/25 02:53:47;;;;;;;5.32;1.85;;;;;;;;;;5013657;28;20496;-78
2022/11/25 02:56:14;;;;;;;6.22;2.35;;;;;;;;;;5013737;28;20048;-78
2022/11/25 02:58:40;;;;;;;6.97;2.10;;;;;;;;;;4998490;28;20032;-78
2022/11/25 03:01:05;;;;;;;7.57;2.70;;;;;;;;;;5013742;28;20030;-78
2022/11/25 03:03:31;;;;;;;5.20;1.73;;;;;;;;;;5013677;28;20030;-78
2022/11/25 03:05:56;;;;;;;11.68;1.88;;;;;;;;;;4997409;28;20552;-77
2022/11/25 03:08:22;;;;;;;5.50;1.90;;;;;;;;;;4997349;28;20041;-78
2022/11/25 03:10:47;;;;;;;4.10;1.85;;;;;;;;;;4997355;28;20104;-78
2022/11/25 03:13:13;;;;;;;7.50;2.00;;;;;;;;;;4981207;28;20030;-78
2022/11/25 03:15:38;;;;;;;4.00;1.83;;;;;;;;;;5013445;28;20072;-78
2022/11/25 03:18:04;;;;;;;6.43;1.80;;;;;;;;;;5013356;28;20092;-78
2022/11/25 03:20:29;;;;;;;6.80;1.85;;;;;;;;;;4997203;28;20038;-78
2022/11/25 03:22:55;;;;;;;9.43;1.92;;;;;;;;;;5013576;28;20512;-78
2022/11/25 03:25:20;;;;;;;6.50;2.08;;;;;;;;;;5013341;28;20480;-79
2022/11/25 03:27:46;;;;;;;5.93;1.88;;;;;;;;;;5013203;28;20031;-78
2022/11/25 03:30:16;;;;;;;6.15;1.90;;;;;;;;;;5013555;28;20029;-78
2022/11/25 03:32:42;;;;;;;4.65;1.70;;;;;;;;;;4996820;28;20029;-78
2022/11/25 03:35:08;;;;;;;6.00;1.67;;;;;;;;;;4981157;28;20033;-78
2022/11/25 03:37:34;;;;;;;14.95;2.38;;;;;;;;;;5012359;28;20120;-78
2022/11/25 03:39:59;;;;;;;7.38;1.85;;;;;;;;;;4996740;28;20133;-78
2022/11/25 03:42:24;;;;;;;4.45;1.98;;;;;;;;;;4996611;28;20405;-78
2022/11/25 03:44:50;;;;;;;5.82;2.15;;;;;;;;;;4996808;28;20046;-78
2022/11/25 03:47:15;;;;;;;5.65;1.88;;;;;;;;;;5013641;28;20025;-79
2022/11/25 03:49:41;;;;;;;4.53;1.75;;;;;;;;;;5015106;28;20030;-79
2022/11/25 03:52:06;;;;;;;4.53;1.98;;;;;;;;;;5013654;28;20030;-78
2022/11/25 03:54:31;;;;;;;10.13;2.05;;;;;;;;;;5013099;28;20393;-80
2022/11/25 03:56:57;;;;;;;5.72;1.92;;;;;;;;;;5012750;28;20373;-78
2022/11/25 03:59:22;;;;;;;6.03;1.88;;;;;;;;;;5013328;28;20045;-78
2022/11/25 04:01:48;;;;;;;6.55;1.80;;;;;;;;;;5013001;28;20025;-77
2022/11/25 04:04:13;;;;;;;5.30;1.95;;;;;;;;;;5012968;28;20048;-78
2022/11/25 04:06:38;;;;;;;4.85;1.90;;;;;;;;;;5012467;28;20525;-78
2022/11/25 04:09:06;;;;;;;6.85;1.80;;;;;;;;;;4996820;28;20042;-78
2022/11/25 04:14:15;;;;;;;4.50;1.83;;;;;;;;;;5014214;28;20072;-78
2022/11/25 04:16:40;;;;;;;4.30;1.85;;;;;;;;;;5012379;28;20183;-78
2022/11/25 04:19:06;;;;;;;6.65;1.70;;;;;;;;;;5013584;28;20449;-78
2022/11/25 04:21:31;;;;;;;5.97;1.70;;;;;;;;;;5013927;28;20068;-78
2022/11/25 04:23:56;;;;;;;5.45;1.95;;;;;;;;;;5012439;28;20076;-79
2022/11/25 04:26:22;;;;;;;5.65;2.20;;;;;;;;;;5012357;28;20038;-78
2022/11/25 04:28:47;;;;;;;5.35;1.92;;;;;;;;;;4995882;28;20052;-78
2022/11/25 04:31:13;;;;;;;4.00;1.60;;;;;;;;;;4980162;28;20029;-78
2022/11/25 04:33:38;;;;;;;8.38;1.90;;;;;;;;;;5012243;28;20389;-79
2022/11/25 04:36:04;;;;;;;5.18;2.08;;;;;;;;;;4996020;28;20465;-78
2022/11/25 04:38:29;;;;;;;5.70;2.00;;;;;;;;;;5012247;28;20029;-78
2022/11/25 04:40:54;;;;;;;5.90;1.80;;;;;;;;;;5013813;28;20037;-78
2022/11/25 04:43:20;;;;;;;5.03;1.95;;;;;;;;;;5013460;28;20058;-79
2022/11/25 04:45:46;;;;;;;3.65;1.60;;;;;;;;;;5012095;28;20037;-78
2022/11/25 04:48:12;;;;;;;10.30;2.00;;;;;;;;;;5012467;28;20389;-78
2022/11/25 04:50:37;;;;;;;4.00;1.67;;;;;;;;;;5013589;28;20025;-78
2022/11/25 04:53:02;;;;;;;5.47;2.08;;;;;;;;;;5011996;28;20497;-78
2022/11/25 04:55:28;;;;;;;3.40;1.65;;;;;;;;;;5013474;28;20092;-79
2022/11/25 04:57:54;;;;;;;5.90;1.73;;;;;;;;;;5011831;28;20030;-78
2022/11/25 05:00:20;;;;;;;5.95;1.77;;;;;;;;;;5013369;28;20060;-78
2022/11/25 05:02:45;;;;;;;5.88;1.88;;;;;;;;;;5013956;28;20054;-78
2022/11/25 05:05:10;;;;;;;5.68;1.75;;;;;;;;;;5012472;28;20451;-79
2022/11/25 05:07:36;;;;;;;4.10;1.50;;;;;;;;;;5013837;28;20033;-79
2022/11/25 05:10:01;;;;;;;3.05;1.45;;;;;;;;;;5028986;28;20080;-78
2022/11/25 05:12:28;;;;;;;5.53;1.80;;;;;;;;;;5012687;28;20053;-77
2022/11/25 05:14:54;;;;;;;2.85;1.48;;;;;;;;;;5013974;28;20030;-78
2022/11/25 05:17:21;;;;;;;4.45;1.50;;;;;;;;;;5013657;28;20021;-80
2022/11/25 05:19:47;;;;;;;8.10;2.13;;;;;;;;;;5012274;28;20480;-79
2022/11/25 05:22:15;;;;;;;9.63;2.55;;;;;;;;;;5012206;28;20491;-79
2022/11/25 05:24:41;;;;;;;10.48;2.78;;;;;;;;;;5013805;28;20033;-79
2022/11/25 05:27:06;;;;;;;4.20;1.90;;;;;;;;;;5012126;28;20503;-79
2022/11/25 05:29:32;;;;;;;7.00;2.25;;;;;;;;;;5013714;28;20030;-80
2022/11/25 05:31:57;;;;;;;11.00;1.98;;;;;;;;;;5012607;28;20066;-80
2022/11/25 05:34:22;;;;;;;8.13;1.95;;;;;;;;;;5012699;28;20113;-80
2022/11/25 05:36:48;;;;;;;5.15;1.88;;;;;;;;;;5012641;28;20432;-81
2022/11/25 05:39:13;;;;;;;6.55;1.52;;;;;;;;;;5013850;28;20395;-80
2022/11/25 05:41:38;;;;;;;9.82;1.77;;;;;;;;;;4998176;28;20084;-80
2022/11/25 05:44:04;;;;;;;5.30;1.60;;;;;;;;;;5018737;28;20061;-78
2022/11/25 05:46:30;;;;;;;4.80;1.50;;;;;;;;;;5015163;28;20084;-80
2022/11/25 05:48:55;;;;;;;4.32;1.27;;;;;;;;;;5011993;28;20041;-79
2022/11/25 05:51:21;;;;;;;4.32;1.50;;;;;;;;;;4995815;28;20033;-80
2022/11/25 05:53:46;;;;;;;3.22;1.40;;;;;;;;;;5011721;28;20030;-80
2022/11/25 05:56:12;;;;;;;4.93;1.60;;;;;;;;;;5013630;28;20051;-79
2022/11/25 05:58:37;;;;;;;3.72;1.20;;;;;;;;;;5013517;28;20030;-79
2022/11/25 06:01:11;;;;;;;6.45;1.42;;;;;;;;;;5013538;28;20052;-79
2022/11/25 06:03:36;;;;;;;5.50;1.42;;;;;;;;;;5031999;28;20018;-79
2022/11/25 06:06:03;;;;;;;3.83;1.30;;;;;;;;;;5015822;28;20425;-79
2022/11/25 06:08:29;;;;;;;3.22;1.20;;;;;;;;;;4999013;28;20041;-79
2022/11/25 06:10:54;;;;;;;6.75;1.20;;;;;;;;;;5015682;28;20473;-78
2022/11/25 06:13:20;;;;;;;6.85;1.42;;;;;;;;;;5016981;28;20100;-78
2022/11/25 06:15:46;;;;;;;33.20;1.92;;;;;;;;;;5015499;28;20032;-80
2022/11/25 06:18:13;;;;;;;3.53;1.00;;;;;;;;;;5015250;28;20065;-79
2022/11/25 06:20:38;;;;;;;8.10;1.25;;;;;;;;;;5016518;28;20147;-79
2022/11/25 06:23:04;;;;;;;4.22;1.40;;;;;;;;;;5015448;28;20116;-79
2022/11/25 06:25:29;;;;;;;2.20;1.00;;;;;;;;;;5015751;28;20033;-79
2022/11/25 06:27:55;;;;;;;2.38;0.88;;;;;;;;;;4998675;28;20493;-79
2022/11/25 06:30:20;;;;;;;3.97;1.23;;;;;;;;;;4998738;28;20041;-79
2022/11/25 06:32:46;;;;;;;5.53;1.05;;;;;;;;;;5014902;28;20473;-79
2022/11/25 06:35:13;;;;;;;3.30;1.20;;;;;;;;;;5015351;28;20045;-79
2022/11/25 06:37:39;;;;;;;3.03;1.30;;;;;;;;;;4998601;28;20076;-79
2022/11/25 06:40:05;;;;;;;3.55;1.40;;;;;;;;;;5014892;28;20030;-79
2022/11/25 06:42:31;;;;;;;2.28;0.93;;;;;;;;;;5014714;28;20054;-79
2022/11/25 06:44:56;;;;;;;6.57;1.23;;;;;;;;;;4998565;28;20037;-79
2022/11/25 06:47:22;;;;;;;2.97;1.20;;;;;;;;;;5014639;28;20034;-79
2022/11/25 06:49:47;;;;;;;3.88;1.50;;;;;;;;;;5016812;28;20041;-79
2022/11/25 06:52:13;;;;;;;2.85;1.02;;;;;;;;;;5017484;28;20029;-79
2022/11/25 06:54:40;;;;;;;7.03;1.60;;;;;;;;;;5017226;28;20034;-79
2022/11/25 06:57:06;;;;;;;6.85;1.30;;;;;;;;;;5015769;28;20021;-80
2022/11/25 06:59:32;;;;;;;3.30;1.20;;;;;;;;;;5017294;28;20017;-80
2022/11/25 07:01:58;;;;;;;6.40;1.13;;;;;;;;;;5015614;28;20041;-79
2022/11/25 07:04:23;;;;;;;3.83;1.30;;;;;;;;;;5016767;28;20034;-78
2022/11/25 07:06:49;;;;;;;7.30;1.00;;;;;;;;;;4999790;28;20048;-79
2022/11/25 07:09:14;;;;;;;4.90;1.40;;;;;;;;;;5017202;28;20057;-77
2022/11/25 07:11:40;;;;;;;3.83;1.38;;;;;;;;;;5015038;28;20164;-79
2022/11/25 07:14:09;;;;;;;5.95;1.38;;;;;;;;;;5016458;28;20029;-80
2022/11/25 07:16:37;;;;;;;2.28;1.10;;;;;;;;;;5016067;28;20033;-78
2022/11/25 07:19:03;;;;;;;8.45;1.52;;;;;;;;;;5015227;28;20032;-79
2022/11/25 07:21:30;;;;;;;3.83;1.42;;;;;;;;;;5015653;28;20354;-79
2022/11/25 07:23:58;;;;;;;7.88;1.73;;;;;;;;;;5017830;28;20041;-80
2022/11/25 07:26:25;;;;;;;7.72;1.60;;;;;;;;;;5014419;28;20030;-79
2022/11/25 07:28:52;;;;;;;10.88;1.45;;;;;;;;;;5031247;28;20018;-80
2022/11/25 07:31:41;;;;;;;6.55;1.70;;;;;;;;;;5014753;28;20030;-79
2022/11/25 07:34:09;;;;;;;9.20;1.83;;;;;;;;;;4996865;28;20025;-79
2022/11/25 07:36:35;;;;;;;4.55;1.58;;;;;;;;;;5015187;28;20045;-79
2022/11/25 07:39:03;;;;;;;11.57;1.67;;;;;;;;;;5014929;28;20030;-79
2022/11/25 07:41:29;;;;;;;5.50;1.88;;;;;;;;;;4997963;28;20022;-78
2022/11/25 07:44:00;;;;;;;8.48;1.70;;;;;;;;;;5014058;28;20030;-79
2022/11/25 07:46:35;;;;;;;11.77;1.75;;;;;;;;;;4997709;28;20114;-79
2022/11/25 07:49:03;;;;;;;5.70;1.30;;;;;;;;;;5015047;28;20548;-78
2022/11/25 07:51:31;;;;;;;7.43;1.95;;;;;;;;;;5014425;28;20033;-80
2022/11/25 07:53:57;;;;;;;8.82;1.55;;;;;;;;;;5014497;28;20033;-79
2022/11/25 07:56:23;;;;;;;5.90;1.92;;;;;;;;;;5015276;28;20029;-78
2022/11/25 07:58:49;;;;;;;7.38;1.55;;;;;;;;;;4998684;28;20096;-79
2022/11/25 08:01:17;;;;;;;10.00;2.05;;;;;;;;;;5014457;28;20029;-79
2022/11/25 08:03:43;;;;;;;8.50;1.55;;;;;;;;;;4998087;28;20369;-78
2022/11/25 08:06:12;;;;;;;5.85;1.60;;;;;;;;;;5014717;28;20025;-79
2022/11/25 08:08:38;;;;;;;6.97;1.52;;;;;;;;;;5000066;28;20057;-79
2022/11/25 08:11:09;;;;;;;7.80;1.30;;;;;;;;;;5018566;28;20026;-80
2022/11/25 08:13:34;;;;;;;3.67;1.52;;;;;;;;;;5015467;28;20036;-79
2022/11/25 08:16:00;;;;;;;10.13;1.45;;;;;;;;;;4997879;28;20396;-78
2022/11/25 08:18:25;;;;;;;9.77;1.58;;;;;;;;;;4996097;28;20018;-79
2022/11/25 08:20:51;;;;;;;6.88;1.65;;;;;;;;;;4980964;28;20053;-78
2022/11/25 08:23:16;;;;;;;15.70;1.80;;;;;;;;;;5013832;28;20029;-78
2022/11/25 08:25:42;;;;;;;4.28;1.50;;;;;;;;;;5014612;28;20396;-78
2022/11/25 08:28:07;;;;;;;9.20;2.42;;;;;;;;;;5013453;28;20493;-78
2022/11/25 08:30:33;;;;;;;3.53;1.30;;;;;;;;;;5015126;28;20029;-78
2022/11/25 08:32:59;;;;;;;6.75;1.50;;;;;;;;;;5014020;28;20030;-78
2022/11/25 08:35:25;;;;;;;10.43;1.83;;;;;;;;;;5014353;28;20038;-79
2022/11/25 08:37:50;;;;;;;13.70;2.20;;;;;;;;;;5015404;28;20030;-77
2022/11/25 08:40:16;;;;;;;7.00;2.17;;;;;;;;;;5012801;28;20030;-79
2022/11/25 08:42:41;;;;;;;10.52;2.35;;;;;;;;;;5013350;28;20045;-77
2022/11/25 08:45:08;;;;;;;11.73;2.28;;;;;;;;;;5013199;28;20032;-77
2022/11/25 08:47:33;;;;;;;10.27;2.13;;;;;;;;;;5028178;28;20026;-78
2022/11/25 08:49:59;;;;;;;12.70;2.72;;;;;;;;;;5011637;28;20169;-78
2022/11/25 08:52:27;;;;;;;9.63;2.60;;;;;;;;;;5011884;28;20632;-78
2022/11/25 08:54:52;;;;;;;14.20;2.45;;;;;;;;;;5011959;28;20549;-78
2022/11/25 08:57:18;;;;;;;9.25;2.13;;;;;;;;;;5013052;28;20109;-78
2022/11/25 08:59:43;;;;;;;8.68;2.10;;;;;;;;;;5013020;28;20030;-78
2022/11/25 09:02:11;;;;;;;12.52;2.50;;;;;;;;;;4995443;28;20125;-78
2022/11/25 09:04:37;;;;;;;8.70;2.10;;;;;;;;;;5011483;28;20079;-78
2022/11/25 09:07:03;;;;;;;11.07;2.30;;;;;;;;;;5011672;28;20420;-78
2022/11/25 09:09:29;;;;;;;7.68;2.17;;;;;;;;;;5011580;28;20026;-79
2022/11/25 09:11:55;;;;;;;8.48;2.28;;;;;;;;;;5011703;28;20028;-78
2022/11/25 09:14:20;;;;;;;8.63;2.10;;;;;;;;;;5011562;28;20037;-78
2022/11/25 09:16:46;;;;;;;9.35;1.88;;;;;;;;;;5011630;28;20022;-78
2022/11/25 09:19:12;;;;;;;10.40;2.40;;;;;;;;;;5011451;28;20535;-78
2022/11/25 09:21:37;;;;;;;13.40;1.95;;;;;;;;;;5011862;28;20616;-78
2022/11/25 09:24:02;;;;;;;10.05;1.80;;;;;;;;;;5027978;28;20041;-78
2022/11/25 09:26:34;;;;;;;5.38;1.80;;;;;;;;;;5011687;28;20025;-78
2022/11/25 09:29:00;;;;;;;7.60;1.83;;;;;;;;;;5011503;28;20116;-78
2022/11/25 09:31:25;;;;;;;8.98;2.33;;;;;;;;;;5011872;28;20108;-78
2022/11/25 09:33:50;;;;;;;11.43;2.20;;;;;;;;;;5011298;28;20053;-79
2022/11/25 09:36:17;;;;;;;7.65;1.75;;;;;;;;;;4996119;28;20124;-78
2022/11/25 09:38:45;;;;;;;3.53;1.63;;;;;;;;;;4998957;28;20042;-78
2022/11/25 09:47:50;;;;;;;6.43;1.92;;;;;;;;;;5015362;28;20041;-78
2022/11/25 09:50:40;;;;;;;10.50;2.22;;;;;;;;;;4998516;28;20075;-79
2022/11/25 09:53:11;;;;;;;8.70;1.85;;;;;;;;;;4998581;28;20036;-79
2022/11/25 09:55:44;;;;;;;6.40;1.75;;;;;;;;;;5031499;28;20496;-79
2022/11/25 09:58:31;;;;;;;7.80;1.88;;;;;;;;;;4998684;28;20028;-79
2022/11/25 10:00:57;;;;;;;10.23;1.88;;;;;;;;;;5016062;28;20383;-79
2022/11/25 10:03:58;;;;;;;5.95;1.50;;;;;;;;;;5014874;28;20109;-79
2022/11/25 10:06:26;;;;;;;3.58;1.63;;;;;;;;;;5006629;28;20537;-79
2022/11/25 10:08:55;;;;;;;5.70;1.80;;;;;;;;;;4998691;28;20532;-79
2022/11/25 10:11:20;;;;;;;5.32;1.67;;;;;;;;;;5005209;28;20067;-79
2022/11/25 10:14:07;;;;;;;8.32;1.83;;;;;;;;;;5034786;28;20025;-78
2022/11/25 10:16:52;;;;;;;4.07;1.38;;;;;;;;;;5035615;28;20022;-79
2022/11/25 10:19:22;;;;;;;;;;;;;;;;;;5035708;28;20388;-79
2022/11/25 10:21:48;;;;;;;4.32;1.52;;;;;;;;;;5023640;28;19952;-78
2022/11/25 10:24:16;;;;;;;5.53;1.30;;;;;;;;;;5051065;28;20037;-78
2022/11/25 10:26:44;;;;;;;5.00;1.50;;;;;;;;;;5050325;28;20025;-78
2022/11/25 10:29:12;;;;;;;7.07;2.15;;;;;;;;;;5035269;28;20022;-78
2022/11/25 10:31:38;;;;;;;9.13;1.58;;;;;;;;;;5033993;28;20052;-78
2022/11/25 10:34:33;;;;;;;3.58;1.92;;;;;;;;;;5050563;28;20345;-78
2022/11/25 10:37:00;;;;;;;4.53;1.60;;;;;;;;;;5033810;28;20036;-78
2022/11/25 10:39:30;;;;;;;5.18;1.33;;;;;;;;;;5050269;28;20033;-78
2022/11/25 10:42:03;;;;;;;2.97;1.45;;;;;;;;;;5017611;28;20063;-79
2022/11/25 10:44:37;;;;;;;3.22;1.13;;;;;;;;;;5035110;28;20472;-79
2022/11/25 10:47:24;;;;;;;9.57;1.40;;;;;;;;;;5034781;28;20128;-79
2022/11/25 10:50:29;;;;;;;4.70;1.40;;;;;;;;;;5035144;28;20246;-79
2022/11/25 10:53:11;;;;;;;3.03;1.40;;;;;;;;;;5033553;28;20021;-79
2022/11/25 10:55:36;;;;;;;3.65;1.50;;;;;;;;;;5049904;28;20021;-78
2022/11/25 10:58:29;;;;;;;5.93;1.60;;;;;;;;;;5049572;28;20118;-79
2022/11/25 11:01:06;;;;;;;4.47;1.40;;;;;;;;;;5050317;28;20037;-78
2022/11/25 11:03:32;;;;;;;4.30;1.50;;;;;;;;;;5034617;28;20025;-78
2022/11/25 11:05:58;;;;;;;9.40;1.50;;;;;;;;;;5050309;28;20033;-79
2022/11/25 11:08:35;;;;;;;8.10;1.58;;;;;;;;;;5049962;28;20080;-79
2022/11/25 11:11:19;;;;;;;5.43;1.45;;;;;;;;;;5034479;28;20022;-79
2022/11/25 11:13:45;;;;;;;5.60;1.50;;;;;;;;;;5050141;28;20116;-79
2022/11/25 11:16:29;;;;;;;7.93;1.67;;;;;;;;;;5050610;28;20538;-79
2022/11/25 11:18:55;;;;;;;4.82;1.52;;;;;;;;;;5050603;28;20036;-79
2022/11/25 11:21:32;;;;;;;7.25;1.58;;;;;;;;;;5035652;28;20376;-79
2022/11/25 11:23:58;;;;;;;5.75;1.60;;;;;;;;;;5051012;28;20400;-79
2022/11/25 11:26:30;;;;;;;4.10;1.45;;;;;;;;;;5051370;28;20486;-79
2022/11/25 11:28:58;;;;;;;4.30;1.70;;;;;;;;;;5050844;28;20480;-79
2022/11/25 11:31:37;;;;;;;7.65;2.08;;;;;;;;;;5051938;28;20033;-79
2022/11/25 11:34:09;;;;;;;55.70;2.40;;;;;;;;;;5050312;28;20502;-79
2022/11/25 11:37:00;;;;;;;13.73;1.90;;;;;;;;;;5035045;28;20476;-79
2022/11/25 11:39:46;;;;;;;11.15;1.88;;;;;;;;;;5033571;28;20025;-79
2022/11/25 11:42:18;;;;;;;3.67;1.27;;;;;;;;;;5034047;28;20041;-79
2022/11/25 11:45:05;;;;;;;6.00;1.85;;;;;;;;;;5035078;28;20025;-79
2022/11/25 11:48:09;;;;;;;6.10;2.10;;;;;;;;;;5035413;28;20022;-79
2022/11/25 11:50:48;;;;;;;7.80;2.00;;;;;;;;;;5034726;28;20025;-79
2022/11/25 11:53:19;;;;;;;9.90;2.20;;;;;;;;;;5050060;28;20048;-79
2022/11/25 11:55:47;;;;;;;4.43;1.85;;;;;;;;;;5033465;28;20029;-79
2022/11/25 11:58:29;;;;;;;7.07;1.85;;;;;;;;;;5035347;28;20021;-80
2022/11/25 12:01:10;;;;;;;5.05;2.00;;;;;;;;;;5034847;28;20112;-80
2022/11/25 12:03:40;;;;;;;8.95;2.10;;;;;;;;;;5035035;28;20100;-80
2022/11/25 12:06:08;;;;;;;10.93;2.30;;;;;;;;;;5051002;28;20048;-81
2022/11/25 12:08:50;;;;;;;6.43;2.13;;;;;;;;;;5050735;28;20029;-80
2022/11/25 12:11:20;;;;;;;7.68;2.50;;;;;;;;;;5035199;28;20028;-80
2022/11/25 12:14:03;;;;;;;10.70;2.63;;;;;;;;;;5050276;28;20031;-82
2022/11/25 12:16:36;;;;;;;8.95;2.58;;;;;;;;;;5034562;28;20079;-81
2022/11/25 12:19:07;;;;;;;9.07;2.22;;;;;;;;;;5033758;28;20113;-81
2022/11/25 12:21:55;;;;;;;7.80;2.55;;;;;;;;;;5035450;28;20025;-79
2022/11/25 12:24:48;;;;;;;9.23;2.72;;;;;;;;;;5050562;28;20021;-80
2022/11/25 12:27:20;;;;;;;10.00;2.38;;;;;;;;;;5034722;28;20026;-80
2022/11/25 12:29:56;;;;;;;5.32;2.50;;;;;;;;;;5034635;28;20025;-79
2022/11/25 12:32:37;;;;;;;7.20;2.60;;;;;;;;;;5033079;28;20167;-80
2022/11/25 12:35:08;;;;;;;5.75;2.30;;;;;;;;;;5032841;28;20124;-79
2022/11/25 12:37:45;;;;;;;7.25;2.53;;;;;;;;;;5032971;28;20088;-80
2022/11/25 12:40:36;;;;;;;7.47;2.60;;;;;;;;;;5033954;28;20029;-79
2022/11/25 12:43:25;;;;;;;7.00;2.88;;;;;;;;;;5011944;28;20053;-80
2022/11/25 12:46:15;;;;;;;7.03;2.50;;;;;;;;;;5031337;28;20467;-79
2022/11/25 12:48:41;;;;;;;5.35;2.60;;;;;;;;;;5048229;28;20032;-79
2022/11/25 12:51:14;;;;;;;9.30;2.80;;;;;;;;;;5048153;28;20443;-79
2022/11/25 12:54:05;;;;;;;8.15;2.55;;;;;;;;;;5032560;28;20472;-80
2022/11/25 12:56:55;;;;;;;8.70;2.50;;;;;;;;;;5032852;28;20036;-80
2022/11/25 13:00:09;;;;;;;6.28;2.28;;;;;;;;;;5032640;28;20104;-80
2022/11/25 13:03:06;;;;;;;6.43;2.40;;;;;;;;;;5015254;28;20071;-80
2022/11/25 13:05:43;;;;;;;7.93;2.63;;;;;;;;;;5048299;28;20033;-80
2022/11/25 13:08:12;;;;;;;8.90;2.20;;;;;;;;;;5032894;28;20029;-80
2022/11/25 13:11:02;;;;;;;5.40;2.20;;;;;;;;;;5033210;28;20021;-80
2022/11/25 13:13:51;;;;;;;4.90;1.92;;;;;;;;;;5033732;28;20033;-80
2022/11/25 13:16:18;;;;;;;9.82;2.20;;;;;;;;;;5052816;28;20029;-79
2022/11/25 13:18:44;;;;;;;7.00;1.90;;;;;;;;;;5052121;28;20029;-80
2022/11/25 13:21:11;;;;;;;10.95;2.10;;;;;;;;;;5052691;28;20040;-80
2022/11/25 13:23:51;;;;;;;5.75;2.08;;;;;;;;;;5052330;28;20439;-80
2022/11/25 13:26:31;;;;;;;8.60;2.40;;;;;;;;;;5051910;28;20029;-80
2022/11/25 13:28:57;;;;;;;4.80;2.20;;;;;;;;;;5034029;28;20430;-78
2022/11/25 13:31:31;;;;;;;7.57;2.05;;;;;;;;;;5050829;28;20507;-79
2022/11/25 13:34:07;;;;;;;9.05;2.78;;;;;;;;;;5050917;28;20057;-79
2022/11/25 13:36:44;;;;;;;8.82;2.65;;;;;;;;;;5050982;28;20029;-79
2022/11/25 13:39:15;;;;;;;5.90;2.15;;;;;;;;;;5050711;28;20030;-79
2022/11/25 13:42:15;;;;;;;7.28;2.33;;;;;;;;;;5033738;28;20132;-79
2022/11/25 13:44:53;;;;;;;11.77;2.30;;;;;;;;;;5009160;28;20056;-78
2022/11/25 13:47:36;;;;;;;5.35;2.00;;;;;;;;;;5034299;28;20163;-79
2022/11/25 13:50:05;;;;;;;7.90;1.98;;;;;;;;;;5051007;28;20449;-78
2022/11/25 13:52:31;;;;;;;7.45;2.50;;;;;;;;;;5050802;28;20029;-78
2022/11/25 13:54:56;;;;;;;5.30;1.85;;;;;;;;;;5034023;28;20028;-78
2022/11/25 13:57:36;;;;;;;6.00;2.00;;;;;;;;;;5034910;28;20029;-78
2022/11/25 14:00:06;;;;;;;8.00;2.45;;;;;;;;;;5050612;28;20112;-79
2022/11/25 14:02:40;;;;;;;7.47;2.20;;;;;;;;;;5035161;28;20388;-79
2022/11/25 14:05:37;;;;;;;8.07;1.85;;;;;;;;;;5050249;28;20045;-79
2022/11/25 14:08:12;;;;;;;7.53;2.15;;;;;;;;;;5050533;28;20030;-79
2022/11/25 14:10:44;;;;;;;5.45;2.13;;;;;;;;;;5033912;28;20057;-79
2022/11/25 14:13:27;;;;;;;6.60;1.90;;;;;;;;;;5050268;28;20029;-79
2022/11/25 14:16:18;;;;;;;7.50;2.00;;;;;;;;;;5035325;28;20029;-79
2022/11/25 14:18:51;;;;;;;6.13;2.08;;;;;;;;;;5035119;28;20083;-79
2022/11/25 14:21:24;;;;;;;9.10;2.00;;;;;;;;;;5050148;28;20067;-79
2022/11/25 14:23:53;;;;;;;;;;;;;;;;;;5050449;28;20124;-79
2022/11/25 14:26:26;;;;;;;5.57;2.10;;;;;;;;;;5033536;28;19909;-79
2022/11/25 14:29:01;;;;;;;6.40;2.33;;;;;;;;;;5050031;28;20033;-79
2022/11/25 14:31:36;;;;;;;4.60;1.83;;;;;;;;;;5017289;28;20475;-78
2022/11/25 14:34:10;;;;;;;4.80;1.73;;;;;;;;;;5051402;28;20033;-79
2022/11/25 14:36:43;;;;;;;6.30;2.42;;;;;;;;;;5034461;28;20029;-78
2022/11/25 14:39:15;;;;;;;5.32;2.20;;;;;;;;;;5033502;28;20018;-78
2022/11/25 14:41:44;;;;;;;5.97;1.88;;;;;;;;;;5012228;28;20124;-78
2022/11/25 14:44:14;;;;;;;6.55;1.83;;;;;;;;;;4997540;28;20052;-78
2022/11/25 14:46:56;;;;;;;3.63;1.98;;;;;;;;;;4997179;28;20071;-78
2022/11/25 14:49:22;;;;;;;8.88;2.22;;;;;;;;;;5013698;28;20022;-77
2022/11/25 14:51:49;;;;;;;5.78;1.80;;;;;;;;;;5015170;28;20033;-78
2022/11/25 14:54:16;;;;;;;5.80;1.90;;;;;;;;;;5013323;28;20400;-78
2022/11/25 14:56:41;;;;;;;5.22;1.88;;;;;;;;;;4980915;28;20037;-78
2022/11/25 14:59:08;;;;;;;8.48;2.22;;;;;;;;;;5012991;28;20021;-79
2022/11/25 15:01:35;;;;;;;10.50;2.30;;;;;;;;;;5013435;28;20388;-78
2022/11/25 15:04:11;;;;;;;11.32;2.05;;;;;;;;;;4994397;28;20400;-79
2022/11/25 15:06:39;;;;;;;6.20;2.15;;;;;;;;;;5010227;28;20089;-79
2022/11/25 15:09:20;;;;;;;10.07;2.50;;;;;;;;;;5008355;28;20036;-79
2022/11/25 15:11:45;;;;;;;16.25;2.75;;;;;;;;;;5009587;28;20041;-79